Largo, MD

10:03 AM EDT on May 03, 2015 (GMT -0400)
Cabin Branch Acres | | Change Station
CLOSE
Current Station
Personal Weather Station
Location: Upper Marlboro, MD
Elevation: 95 ft
Nearby Weather Stations

Elev 95 ft 38.85 °N, 76.80 °W | Updated 60 seconds ago

Clear
Clear
62.1 °F
Feels Like 62.1 °F
N
1.3
Wind Variable Wind from ESE
Gusts 2.5 mph

Today
High -- | Low -- °F
--% Chance of Precip.
Yesterday
High -- | Low -- °F
Precip. -- in
6:07 AM 8:01 PM
Full, 100% visible
Pressure 30.14 in
Visibility 10.0 miles
Clouds Few 10000 ft
Dew Point 33 °F
Humidity 34%
Rainfall 0.00 in
Snow Depth Not available.
UV 4.0 out of 12
Pollen 10.20 out of 12
Air Quality Not available.
Flu Activity Local Activity
METAR KADW 031358Z AUTO 29004KT 10SM FEW100 22/06 A3012 RMK AO2 SLP205 T02160059 $

More Conditions Fewer Conditions

Pressure 30.14 in
Visibility 10.0 miles
Clouds Few 10000 ft
Dew Point 33 °F
Humidity 34%
Rainfall 0.00 in
Snow Depth Not available.
UV 4.0 out of 12
Pollen 10.20 out of 12
Air Quality Not available.
Flu Activity Local Activity
METAR KADW 031358Z AUTO 29004KT 10SM FEW100 22/06 A3012 RMK AO2 SLP205 T02160059 $

More Conditions Fewer Conditions

Nepal has a long way to go to dig out and rebuild from a devastating earthquake. We have teamed up with several charities and organizations to make contributing to the relief effort as easy as possible.
How you can help: Portlight Strategies | Red Cross

10-Day Weather Forecast

Almanac

Astronomy

May. 03, 2015 Rise Set
Actual Time
Civil Twilight
Nautical Twilight
Astronomical Twilight
Moon
Length of Visible Light
Length of Day
Tomorrow will be .
, % of the Moon is Illuminated

Today's Extremes

State Highs State Lows

Community

WunderPhotos

Upload Photos

1,818,232 photos uploaded!

WunderBlogs® & News

Nearby

Air Quality

  Air Quality AQ Index Pollutant
Not available.

Snow Depth

Station Depth Elevation

Earthquake Activity

City Distance Mag. Time & Date
Minimum magnitude displayed is 2.5.

Coastal Water Temperatures

Place Temperature

Stations

Nearby Weather Stations

Station Location Temp. Windchill Dew Point Humidity Wind Precip. Elev Updated Type